createdAt,value
2018-10-12T00:01:45.775Z,20.30
2018-10-12T00:04:14.658Z,16.60
2018-10-12T00:06:43.583Z,16.77
2018-10-12T00:09:12.513Z,16.83
2018-10-12T00:11:41.450Z,15.77
2018-10-12T00:14:10.360Z,18.05
2018-10-12T00:16:39.307Z,15.17
2018-10-12T00:19:08.254Z,16.60
2018-10-12T00:21:37.160Z,14.57
2018-10-12T00:24:06.129Z,14.77
2018-10-12T00:26:35.054Z,17.12
2018-10-12T00:29:04.012Z,14.37
2018-10-12T00:31:32.951Z,14.60
2018-10-12T00:34:01.865Z,13.60
2018-10-12T00:36:30.797Z,14.00
2018-10-12T00:38:59.724Z,13.47
2018-10-12T00:41:28.692Z,13.27
2018-10-12T00:43:57.671Z,12.37
2018-10-12T00:46:26.579Z,12.97
2018-10-12T00:48:55.482Z,13.00
2018-10-12T00:51:24.388Z,14.65
2018-10-12T00:53:53.321Z,14.50
2018-10-12T00:56:22.226Z,13.43
2018-10-12T00:58:51.143Z,12.53
2018-10-12T01:01:20.647Z,15.67
2018-10-12T01:03:50.148Z,14.97
2018-10-12T01:06:19.243Z,14.77
2018-10-12T01:08:48.145Z,16.87
2018-10-12T01:11:17.093Z,17.07
2018-10-12T01:13:45.989Z,16.23
2018-10-12T01:16:15.013Z,16.63
2018-10-12T01:18:43.941Z,15.30
2018-10-12T01:21:12.895Z,15.37
2018-10-12T01:23:41.788Z,15.83
2018-10-12T01:26:10.761Z,15.53
2018-10-12T01:28:39.671Z,15.57
2018-10-12T01:31:08.636Z,18.07
2018-10-12T01:33:37.593Z,15.70
2018-10-12T01:36:06.598Z,14.40
2018-10-12T01:38:35.510Z,14.47
2018-10-12T01:41:04.471Z,14.60
2018-10-12T01:43:33.399Z,16.73
2018-10-12T01:46:02.339Z,14.77
2018-10-12T01:48:31.262Z,15.80
2018-10-12T01:51:00.157Z,13.60
2018-10-12T01:53:29.145Z,13.97
2018-10-12T01:56:00.799Z,13.03
2018-10-12T01:58:30.265Z,13.27
2018-10-12T02:00:59.198Z,16.00
2018-10-12T02:03:28.090Z,13.83
2018-10-12T02:05:57.031Z,12.77
2018-10-12T02:08:25.923Z,14.67
2018-10-12T02:10:54.868Z,13.70
2018-10-12T02:13:23.771Z,15.30
2018-10-12T02:15:52.721Z,15.60
2018-10-12T02:18:21.897Z,15.93
2018-10-12T02:20:50.896Z,14.13
2018-10-12T02:23:19.880Z,13.17
2018-10-12T02:25:48.804Z,12.37
2018-10-12T02:28:17.709Z,12.10
2018-10-12T02:30:46.666Z,11.57
2018-10-12T02:33:15.625Z,13.57
2018-10-12T02:35:44.549Z,11.73
2018-10-12T02:38:13.480Z,10.70
2018-10-12T02:40:42.378Z,12.98
2018-10-12T02:43:11.336Z,10.43
2018-10-12T02:45:40.261Z,10.60
2018-10-12T02:48:09.183Z,12.87
2018-10-12T02:50:38.084Z,9.67
2018-10-12T02:53:07.070Z,9.40
2018-10-12T02:55:35.982Z,9.87
2018-10-12T02:58:04.962Z,10.03
2018-10-12T03:00:33.856Z,9.37
2018-10-12T03:03:02.765Z,8.87
2018-10-12T03:05:31.735Z,9.93
2018-10-12T03:08:00.681Z,8.13
2018-10-12T03:10:29.592Z,8.20
2018-10-12T03:12:58.526Z,7.23
2018-10-12T03:15:27.445Z,8.93
2018-10-12T03:17:56.351Z,6.77
2018-10-12T03:20:25.284Z,8.10
2018-10-12T03:22:54.172Z,9.53
2018-10-12T03:25:23.075Z,9.80
2018-10-12T03:28:31.398Z,7.53
2018-10-12T03:31:00.905Z,7.43
2018-10-12T03:33:30.366Z,6.63
2018-10-12T03:35:59.381Z,7.92
2018-10-12T03:38:28.304Z,8.07
2018-10-12T03:40:57.192Z,8.30
2018-10-12T03:43:26.243Z,6.70
2018-10-12T03:45:55.172Z,6.27
2018-10-12T03:48:24.142Z,6.43
2018-10-12T03:50:53.057Z,5.73
2018-10-12T03:53:21.944Z,5.97
2018-10-12T03:55:50.866Z,6.13
2018-10-12T03:58:19.771Z,7.50
2018-10-12T04:00:48.724Z,7.23
2018-10-12T04:03:17.901Z,4.70
2018-10-12T04:05:47.013Z,6.93
2018-10-12T04:08:15.904Z,5.17
2018-10-12T04:10:44.803Z,5.73
2018-10-12T04:13:13.728Z,6.70
2018-10-12T04:15:42.619Z,5.53
2018-10-12T04:18:11.544Z,6.10
2018-10-12T04:20:40.437Z,6.40
2018-10-12T04:23:09.407Z,4.70
2018-10-12T04:25:38.293Z,4.30
2018-10-12T04:28:07.281Z,6.57
2018-10-12T04:30:36.177Z,5.03
2018-10-12T04:33:05.099Z,4.53
2018-10-12T04:35:33.970Z,6.83
2018-10-12T04:38:02.891Z,6.27
2018-10-12T04:41:03.013Z,5.27
2018-10-12T04:43:32.406Z,4.47
2018-10-12T04:46:03.062Z,4.83
2018-10-12T04:48:32.300Z,5.17
2018-10-12T04:51:01.852Z,5.60
2018-10-12T04:53:30.795Z,5.37
2018-10-12T04:55:59.730Z,6.78
2018-10-12T04:58:28.681Z,6.73
2018-10-12T05:00:57.613Z,5.33
2018-10-12T05:03:26.518Z,5.83
2018-10-12T05:05:55.413Z,6.43
2018-10-12T05:08:24.374Z,5.42
2018-10-12T05:10:53.325Z,6.00
2018-10-12T05:13:22.272Z,6.50
2018-10-12T05:15:51.185Z,6.63
2018-10-12T05:18:20.100Z,7.30
2018-10-12T05:20:49.031Z,7.20
2018-10-12T05:23:17.944Z,7.67
2018-10-12T05:25:46.839Z,10.20
2018-10-12T05:28:15.756Z,5.07
2018-10-12T05:30:44.674Z,7.30
2018-10-12T05:33:13.572Z,5.33
2018-10-12T05:35:42.501Z,5.47
2018-10-12T05:38:11.402Z,6.67
2018-10-12T05:40:40.348Z,6.93
2018-10-12T05:43:09.342Z,6.17
2018-10-12T05:45:38.232Z,5.50
2018-10-12T05:48:43.782Z,6.13
2018-10-12T05:51:13.598Z,6.83
2018-10-12T05:53:42.591Z,9.43
2018-10-12T05:56:12.895Z,6.30
2018-10-12T05:58:42.672Z,6.37
2018-10-12T06:01:11.616Z,7.17
2018-10-12T06:03:40.496Z,8.87
2018-10-12T06:06:09.486Z,6.90
2018-10-12T06:08:38.391Z,9.90
2018-10-12T06:11:07.893Z,7.90
2018-10-12T06:13:36.684Z,6.27
2018-10-12T06:16:05.839Z,6.80
2018-10-12T06:18:34.783Z,6.63
2018-10-12T06:21:03.773Z,7.13
2018-10-12T06:23:32.675Z,6.80
2018-10-12T06:26:01.625Z,6.30
2018-10-12T06:28:30.511Z,8.10
2018-10-12T06:30:59.442Z,6.57
2018-10-12T06:33:28.411Z,10.23
2018-10-12T06:35:57.316Z,7.60
2018-10-12T06:38:26.256Z,8.23
2018-10-12T06:40:55.251Z,7.33
2018-10-12T06:43:24.057Z,7.83
2018-10-12T06:45:52.946Z,7.27
2018-10-12T06:48:21.853Z,8.57
2018-10-12T06:50:50.776Z,7.57
2018-10-12T06:53:19.678Z,7.53
2018-10-12T06:55:48.572Z,7.03
2018-10-12T06:58:17.499Z,8.30
2018-10-12T07:00:46.441Z,5.83
2018-10-12T07:03:15.814Z,6.20
2018-10-12T07:05:44.393Z,6.33
2018-10-12T07:08:13.165Z,6.83
2018-10-12T07:10:42.089Z,5.33
2018-10-12T07:13:10.993Z,6.60
2018-10-12T07:15:39.955Z,8.50
2018-10-12T07:18:09.226Z,5.40
2018-10-12T07:20:38.156Z,6.90
2018-10-12T07:23:07.508Z,5.47
2018-10-12T07:25:36.703Z,6.97
2018-10-12T07:28:05.722Z,6.23
2018-10-12T07:30:34.608Z,6.40
2018-10-12T07:33:03.619Z,4.87
2018-10-12T07:35:32.480Z,4.40
2018-10-12T07:38:01.392Z,5.07
2018-10-12T07:40:30.318Z,5.13
2018-10-12T07:42:59.224Z,5.63
2018-10-12T07:45:28.133Z,4.93
2018-10-12T07:47:57.154Z,5.20
2018-10-12T07:50:26.104Z,4.97
2018-10-12T07:52:55.009Z,5.80
2018-10-12T07:55:23.932Z,6.83
2018-10-12T07:57:52.839Z,4.87
2018-10-12T08:00:21.960Z,5.13
2018-10-12T08:02:50.751Z,8.63
2018-10-12T08:05:19.723Z,5.50
2018-10-12T08:07:48.627Z,6.80
2018-10-12T08:10:17.591Z,5.70
2018-10-12T08:12:46.524Z,7.40
2018-10-12T08:15:17.229Z,5.97
2018-10-12T08:17:46.044Z,6.93
2018-10-12T08:20:15.181Z,8.07
2018-10-12T08:22:44.032Z,5.67
2018-10-12T08:25:12.963Z,5.53
2018-10-12T08:27:41.859Z,5.97
2018-10-12T08:30:10.809Z,7.50
2018-10-12T08:32:39.750Z,5.73
2018-10-12T08:35:08.827Z,5.57
2018-10-12T08:37:37.801Z,8.37
2018-10-12T08:40:07.072Z,7.13
2018-10-12T08:42:35.990Z,7.40
2018-10-12T08:45:05.015Z,5.28
2018-10-12T08:47:33.919Z,5.33
2018-10-12T08:50:02.840Z,6.67
2018-10-12T08:52:31.758Z,6.58
2018-10-12T08:55:00.637Z,6.77
2018-10-12T08:57:29.577Z,7.58
2018-10-12T08:59:58.489Z,8.83
2018-10-12T09:02:27.424Z,8.55
2018-10-12T09:04:56.387Z,4.78
2018-10-12T09:07:25.375Z,7.15
2018-10-12T09:09:54.402Z,9.20
2018-10-12T09:12:23.209Z,5.53
2018-10-12T09:14:52.094Z,5.40
2018-10-12T09:17:21.002Z,5.08
2018-10-12T09:19:49.904Z,6.30
2018-10-12T09:22:18.809Z,7.72
2018-10-12T09:24:47.724Z,5.65
2018-10-12T09:27:16.638Z,5.20
2018-10-12T09:29:45.494Z,4.92
2018-10-12T09:32:14.413Z,6.25
2018-10-12T09:34:43.311Z,5.67
2018-10-12T09:37:12.221Z,8.68
2018-10-12T09:39:41.088Z,5.62
2018-10-12T09:42:10.104Z,3.75
2018-10-12T09:44:39.063Z,5.67
2018-10-12T09:47:08.317Z,4.65
2018-10-12T09:49:37.261Z,4.92
2018-10-12T09:52:06.191Z,4.20
2018-10-12T09:54:35.100Z,4.33
2018-10-12T09:57:21.532Z,4.80
2018-10-12T09:59:50.746Z,3.95
2018-10-12T10:02:37.136Z,3.75
2018-10-12T10:05:10.044Z,5.45
2018-10-12T10:07:39.881Z,5.10
2018-10-12T10:10:08.878Z,4.60
2018-10-12T10:12:37.799Z,9.10
2018-10-12T10:15:06.781Z,4.80
2018-10-12T10:17:35.702Z,5.62
2018-10-12T10:20:05.028Z,5.10
2018-10-12T10:22:34.058Z,3.50
2018-10-12T10:25:02.824Z,5.37
2018-10-12T10:27:31.687Z,6.78
2018-10-12T10:30:00.581Z,4.78
2018-10-12T10:32:29.492Z,4.10
2018-10-12T10:34:58.403Z,3.75
2018-10-12T10:37:27.327Z,6.17
2018-10-12T10:39:56.232Z,6.50
2018-10-12T10:42:25.125Z,6.37
2018-10-12T10:44:54.043Z,5.35
2018-10-12T10:47:22.935Z,6.08
2018-10-12T10:49:51.830Z,4.65
2018-10-12T10:52:20.736Z,7.87
2018-10-12T10:54:49.627Z,4.62
2018-10-12T10:57:18.530Z,3.70
2018-10-12T11:02:28.277Z,4.55
2018-10-12T11:04:57.187Z,4.08
2018-10-12T11:07:26.072Z,5.78
2018-10-12T11:09:54.985Z,4.78
2018-10-12T11:12:23.941Z,5.28
2018-10-12T11:14:52.778Z,6.25
2018-10-12T11:17:21.716Z,5.55
2018-10-12T11:19:50.834Z,4.08
2018-10-12T11:22:19.732Z,5.65
2018-10-12T11:24:48.656Z,4.33
2018-10-12T11:27:17.573Z,6.40
2018-10-12T11:29:46.442Z,3.58
2018-10-12T11:32:15.311Z,3.95
2018-10-12T11:34:44.389Z,4.37
2018-10-12T11:37:13.314Z,5.53
2018-10-12T11:39:42.509Z,8.33
2018-10-12T11:42:11.442Z,4.90
2018-10-12T11:44:40.370Z,4.40
2018-10-12T11:47:09.304Z,6.92
2018-10-12T11:49:38.222Z,4.62
2018-10-12T11:52:07.362Z,5.40
2018-10-12T11:54:36.343Z,5.28
2018-10-12T11:57:05.287Z,5.92
2018-10-12T11:59:34.180Z,10.45
2018-10-12T12:02:03.110Z,12.65
2018-10-12T12:04:31.988Z,5.45
2018-10-12T12:07:00.895Z,4.42
2018-10-12T12:09:29.876Z,4.45
2018-10-12T12:11:58.781Z,5.28
2018-10-12T12:14:27.705Z,5.83
2018-10-12T12:16:56.584Z,4.45
2018-10-12T12:19:25.562Z,4.25
2018-10-12T12:21:54.432Z,4.62
2018-10-12T12:24:23.361Z,3.60
2018-10-12T12:26:52.277Z,5.10
2018-10-12T12:29:21.207Z,4.67
2018-10-12T12:31:50.133Z,7.45
2018-10-12T12:34:19.042Z,5.25
2018-10-12T12:36:47.911Z,5.03
2018-10-12T12:39:16.833Z,5.85
2018-10-12T12:41:45.830Z,4.83
2018-10-12T12:44:14.648Z,4.75
2018-10-12T12:46:43.564Z,5.75
2018-10-12T12:49:13.012Z,5.58
2018-10-12T12:51:41.394Z,4.58
2018-10-12T12:54:10.395Z,4.58
2018-10-12T12:56:39.334Z,6.08
2018-10-12T12:59:08.467Z,4.22
2018-10-12T13:01:37.369Z,6.15
2018-10-12T13:04:06.315Z,5.75
2018-10-12T13:06:35.273Z,5.75
2018-10-12T13:09:05.616Z,5.20
2018-10-12T13:11:34.523Z,5.65
2018-10-12T13:14:03.442Z,4.67
2018-10-12T13:16:32.390Z,4.62
2018-10-12T13:19:01.306Z,7.05
2018-10-12T13:21:30.864Z,5.22
2018-10-12T13:23:59.834Z,6.20
2018-10-12T13:26:29.007Z,5.17
2018-10-12T13:28:57.911Z,2.72
2018-10-12T13:31:26.866Z,5.15
2018-10-12T13:33:55.775Z,5.28
2018-10-12T13:36:24.657Z,3.25
2018-10-12T13:38:53.564Z,4.87
2018-10-12T13:41:22.461Z,2.95
2018-10-12T13:43:51.374Z,5.72
2018-10-12T13:46:20.271Z,4.05
2018-10-12T13:48:49.200Z,4.15
2018-10-12T13:51:18.140Z,3.27
2018-10-12T13:53:47.044Z,6.42
2018-10-12T13:56:15.927Z,6.03
2018-10-12T13:58:44.909Z,4.30
2018-10-12T14:01:13.790Z,5.33
2018-10-12T14:03:42.740Z,4.58
2018-10-12T14:06:11.699Z,3.67
2018-10-12T14:08:40.608Z,4.10
2018-10-12T14:11:09.570Z,8.33
2018-10-12T14:13:38.470Z,4.40
2018-10-12T14:16:07.770Z,6.40
2018-10-12T14:18:36.788Z,4.55
2018-10-12T14:21:05.660Z,5.08
2018-10-12T14:23:34.645Z,6.25
2018-10-12T14:26:03.589Z,5.12
2018-10-12T14:28:32.481Z,5.67
2018-10-12T14:31:01.402Z,5.12
2018-10-12T14:33:30.286Z,7.92
2018-10-12T14:35:59.207Z,4.72
2018-10-12T14:38:28.125Z,5.22
2018-10-12T14:40:57.035Z,4.80
2018-10-12T14:43:25.930Z,4.33
2018-10-12T14:45:54.852Z,4.95
2018-10-12T14:48:23.751Z,17.02
2018-10-12T14:50:52.662Z,14.25
2018-10-12T14:53:21.764Z,55.60
2018-10-12T14:55:50.602Z,7.95
2018-10-12T14:58:19.559Z,6.12
2018-10-12T15:00:48.513Z,4.00
2018-10-12T15:03:17.394Z,5.12
2018-10-12T15:05:46.314Z,4.33
2018-10-12T15:08:15.234Z,4.05
2018-10-12T15:10:44.174Z,4.08
2018-10-12T15:13:13.080Z,4.22
2018-10-12T15:15:42.032Z,6.97
2018-10-12T15:18:11.005Z,5.25
2018-10-12T15:20:39.892Z,5.25
2018-10-12T15:23:09.014Z,4.72
2018-10-12T15:25:37.976Z,5.83
2018-10-12T15:28:07.317Z,4.97
2018-10-12T15:30:36.236Z,6.47
2018-10-12T15:33:05.302Z,7.12
2018-10-12T15:35:34.214Z,4.47
2018-10-12T15:38:03.141Z,5.03
2018-10-12T15:40:32.022Z,6.08
2018-10-12T15:43:01.131Z,3.80
2018-10-12T15:45:29.894Z,3.05
2018-10-12T15:47:58.788Z,4.25
2018-10-12T15:50:27.738Z,4.42
2018-10-12T15:52:56.672Z,6.08
2018-10-12T15:55:25.566Z,4.42
2018-10-12T15:57:54.498Z,3.70
2018-10-12T16:00:23.422Z,4.80
2018-10-12T16:02:52.358Z,3.00
2018-10-12T16:05:21.421Z,12.00
2018-10-12T16:07:50.343Z,481.17
2018-10-12T16:10:19.466Z,50.67
2018-10-12T16:12:48.387Z,153.45
2018-10-12T16:15:17.312Z,23.00
2018-10-12T16:17:46.264Z,170.02
2018-10-12T16:20:15.174Z,335.10
2018-10-12T16:22:44.258Z,355.43
2018-10-12T16:26:09.170Z,947.17
2018-10-12T16:28:38.113Z,1050.50
2018-10-12T16:31:07.278Z,335.57
2018-10-12T16:33:36.202Z,152.22
2018-10-12T16:36:05.204Z,523.65
2018-10-12T16:38:34.119Z,1174.55
2018-10-12T16:41:03.111Z,927.08
2018-10-12T16:43:32.051Z,639.90
2018-10-12T16:46:00.981Z,550.25
2018-10-12T16:48:29.898Z,967.40
2018-10-12T16:50:58.823Z,714.02
2018-10-12T16:53:27.738Z,157.40
2018-10-12T16:55:56.692Z,332.07
2018-10-12T16:58:25.898Z,54.13
2018-10-12T17:00:54.552Z,533.77
2018-10-12T17:03:23.472Z,940.62
2018-10-12T17:05:52.414Z,1432.23
2018-10-12T17:08:21.329Z,793.00
2018-10-12T17:10:50.309Z,141.35
2018-10-12T17:13:19.221Z,6.70
2018-10-12T17:15:48.147Z,166.07
2018-10-12T17:18:17.071Z,44.65
2018-10-12T17:20:45.995Z,62.90
2018-10-12T17:23:14.910Z,322.45
2018-10-12T17:25:43.838Z,253.00
2018-10-12T17:28:12.769Z,845.03
2018-10-12T17:30:41.746Z,639.58
2018-10-12T17:33:10.729Z,700.40
2018-10-12T17:35:39.648Z,729.95
2018-10-12T17:38:08.781Z,1999.90
2018-10-12T17:40:37.738Z,1296.60
2018-10-12T17:43:06.821Z,327.77
2018-10-12T17:45:35.597Z,370.85
2018-10-12T17:48:08.874Z,1999.90
2018-10-12T17:50:38.260Z,783.70
2018-10-12T17:53:08.441Z,1999.90
2018-10-12T17:55:38.332Z,1420.35
2018-10-12T17:58:08.044Z,1999.90
2018-10-12T18:00:41.345Z,1053.88
2018-10-12T18:03:14.198Z,1217.23
2018-10-12T18:05:45.972Z,284.85
2018-10-12T18:08:15.476Z,344.85
2018-10-12T18:10:44.344Z,98.47
2018-10-12T18:13:13.303Z,16.48
2018-10-12T18:15:42.221Z,34.33
2018-10-12T18:18:11.908Z,12.28
2018-10-12T18:20:44.551Z,7.67
2018-10-12T18:23:16.958Z,7.95
2018-10-12T18:26:01.725Z,6.47
2018-10-12T18:28:32.895Z,6.22
2018-10-12T18:31:07.294Z,7.17
2018-10-12T18:33:40.453Z,7.20
2018-10-12T18:36:07.811Z,4.25
2018-10-12T18:38:39.380Z,11.83
2018-10-12T18:41:09.695Z,5.80
2018-10-12T18:43:39.751Z,5.00
2018-10-12T18:46:12.506Z,6.37
2018-10-12T18:48:42.977Z,8.65
2018-10-12T18:51:14.592Z,7.83
2018-10-12T18:53:42.102Z,6.00
2018-10-12T18:56:12.141Z,7.03
2018-10-12T18:58:44.265Z,8.13
2018-10-12T19:01:14.004Z,6.03
2018-10-12T19:03:44.782Z,7.95
2018-10-12T19:06:14.794Z,7.00
2018-10-12T19:08:47.980Z,6.58
2018-10-12T19:11:18.228Z,5.60
2018-10-12T19:13:48.509Z,8.03
2018-10-12T19:16:17.894Z,4.58
2018-10-12T19:18:49.140Z,6.83
2018-10-12T19:21:18.639Z,8.33
2018-10-12T19:23:48.949Z,5.80
2018-10-12T19:26:25.461Z,7.10
2018-10-12T19:28:57.844Z,4.10
2018-10-12T19:31:27.454Z,10.20
2018-10-12T19:33:57.117Z,6.85
2018-10-12T19:36:27.205Z,7.22
2018-10-12T19:38:59.278Z,7.12
2018-10-12T19:41:31.517Z,7.12
2018-10-12T19:44:09.098Z,5.83
2018-10-12T19:46:39.582Z,10.18
2018-10-12T19:49:12.341Z,12.95
2018-10-12T19:51:44.007Z,8.38
2018-10-12T19:54:13.819Z,8.85
2018-10-12T19:56:45.794Z,7.83
2018-10-12T19:59:18.778Z,8.65
2018-10-12T20:01:48.573Z,5.75
2018-10-12T20:04:17.595Z,7.87
2018-10-12T20:06:46.879Z,7.70
2018-10-12T20:09:15.816Z,6.58
2018-10-12T20:11:44.752Z,10.85
2018-10-12T20:14:13.696Z,5.00
2018-10-12T20:16:42.720Z,5.60
2018-10-12T20:19:11.664Z,6.65
2018-10-12T20:21:40.575Z,8.08
2018-10-12T20:24:09.708Z,8.33
2018-10-12T20:26:38.413Z,24.35
2018-10-12T20:29:07.408Z,6.47
2018-10-12T20:31:36.481Z,5.45
2018-10-12T20:34:05.377Z,6.97
2018-10-12T20:36:34.365Z,6.45
2018-10-12T20:39:03.423Z,6.30
2018-10-12T20:41:32.728Z,5.80
2018-10-12T20:44:01.694Z,8.18
2018-10-12T20:46:30.654Z,8.20
2018-10-12T20:48:59.649Z,12.05
2018-10-12T20:51:31.941Z,7.75
2018-10-12T20:54:00.831Z,9.40
2018-10-12T20:56:30.001Z,8.50
2018-10-12T20:58:59.059Z,11.48
2018-10-12T21:01:27.868Z,4.95
2018-10-12T21:03:56.793Z,9.15
2018-10-12T21:06:25.712Z,7.92
2018-10-12T21:08:54.633Z,5.05
2018-10-12T21:11:23.565Z,9.10
2018-10-12T21:13:52.549Z,8.23
2018-10-12T21:16:21.399Z,8.00
2018-10-12T21:18:50.328Z,6.15
2018-10-12T21:21:19.276Z,6.92
2018-10-12T21:23:48.222Z,5.78
2018-10-12T21:26:17.169Z,8.78
2018-10-12T21:28:46.116Z,7.78
2018-10-12T21:31:15.054Z,6.20
2018-10-12T21:33:44.226Z,7.62
2018-10-12T21:36:13.551Z,6.67
2018-10-12T21:38:42.465Z,5.22
2018-10-12T21:41:11.379Z,5.92
2018-10-12T21:43:40.327Z,6.72
2018-10-12T21:46:09.246Z,10.13
2018-10-12T21:48:38.236Z,6.92
2018-10-12T21:51:07.231Z,7.25
2018-10-12T21:53:36.228Z,11.05
2018-10-12T21:56:05.168Z,10.60
2018-10-12T21:58:34.108Z,6.35
2018-10-12T22:01:03.040Z,5.05
2018-10-12T22:03:33.287Z,8.50
2018-10-12T22:06:02.218Z,7.62
2018-10-12T22:08:56.069Z,6.58
2018-10-12T22:11:24.986Z,6.70
2018-10-12T22:13:53.974Z,6.75
2018-10-12T22:16:22.820Z,5.97
2018-10-12T22:18:51.741Z,9.08
2018-10-12T22:21:20.667Z,5.58
2018-10-12T22:23:49.619Z,10.15
2018-10-12T22:26:18.692Z,10.25
2018-10-12T22:28:47.469Z,7.80
2018-10-12T22:31:16.359Z,5.00
2018-10-12T22:33:45.241Z,6.20
2018-10-12T22:36:14.210Z,9.15
2018-10-12T22:38:43.094Z,6.50
2018-10-12T22:41:12.251Z,8.20
2018-10-12T22:43:41.176Z,8.05
2018-10-12T22:46:10.076Z,10.08
2018-10-12T22:48:39.030Z,7.97
2018-10-12T22:51:07.978Z,7.30
2018-10-12T22:53:36.907Z,7.55
2018-10-12T22:56:05.922Z,9.18
2018-10-12T22:58:34.854Z,6.03
2018-10-12T23:01:03.793Z,6.05
2018-10-12T23:03:32.726Z,8.70
2018-10-12T23:06:01.619Z,7.85
2018-10-12T23:08:30.546Z,8.50
2018-10-12T23:10:59.447Z,6.80
2018-10-12T23:13:28.355Z,8.38
2018-10-12T23:15:57.257Z,8.15
2018-10-12T23:18:26.217Z,8.28
2018-10-12T23:20:55.067Z,8.95
2018-10-12T23:23:24.010Z,5.50
2018-10-12T23:25:52.929Z,7.58
2018-10-12T23:28:21.843Z,7.65
2018-10-12T23:30:50.753Z,6.08
2018-10-12T23:33:59.665Z,7.85
2018-10-12T23:36:28.738Z,8.40
2018-10-12T23:38:57.757Z,8.20
2018-10-12T23:41:26.978Z,7.05
2018-10-12T23:43:56.290Z,7.12
2018-10-12T23:46:25.501Z,7.37
2018-10-12T23:48:54.421Z,5.83
2018-10-12T23:51:23.348Z,6.78
2018-10-12T23:53:52.250Z,6.12
2018-10-12T23:56:21.127Z,6.47
2018-10-12T23:58:50.076Z,5.67
